createdAt,value
2023-03-31T00:00:52.857Z,3.35
2023-03-31T00:03:24.078Z,3.50
2023-03-31T00:05:58.103Z,3.20
2023-03-31T00:08:29.855Z,3.40
2023-03-31T00:10:59.959Z,3.63
2023-03-31T00:13:27.905Z,3.20
2023-03-31T00:15:58.289Z,3.50
2023-03-31T00:18:27.572Z,4.20
2023-03-31T00:20:58.206Z,3.28
2023-03-31T00:23:28.965Z,3.20
2023-03-31T00:25:56.900Z,3.13
2023-03-31T00:28:24.925Z,2.95
2023-03-31T00:30:53.491Z,3.03
2023-03-31T00:33:21.763Z,3.25
2023-03-31T00:35:53.688Z,3.20
2023-03-31T00:38:21.996Z,3.45
2023-03-31T00:40:53.346Z,3.20
2023-03-31T00:43:30.214Z,3.20
2023-03-31T00:46:03.921Z,3.20
2023-03-31T00:48:32.326Z,3.40
2023-03-31T00:51:02.764Z,3.17
2023-03-31T00:53:31.364Z,3.30
2023-03-31T00:56:02.143Z,3.13
2023-03-31T00:58:33.252Z,2.80
2023-03-31T01:01:03.403Z,3.25
2023-03-31T01:03:33.394Z,3.10
2023-03-31T01:06:04.712Z,2.95
2023-03-31T01:08:33.178Z,3.30
2023-03-31T01:11:03.075Z,2.92
2023-03-31T01:13:31.760Z,3.33
2023-03-31T01:16:00.904Z,2.80
2023-03-31T01:18:29.121Z,3.05
2023-03-31T01:21:26.008Z,3.33
2023-03-31T01:24:16.265Z,3.00
2023-03-31T01:27:01.361Z,3.00
2023-03-31T01:29:42.759Z,2.95
2023-03-31T01:32:39.962Z,2.95
2023-03-31T01:35:33.912Z,3.10
2023-03-31T01:38:29.153Z,3.10
2023-03-31T01:41:18.801Z,3.00
2023-03-31T01:43:48.742Z,3.00
2023-03-31T01:46:20.223Z,2.78
2023-03-31T01:48:50.362Z,2.85
2023-03-31T01:51:20.871Z,2.80
2023-03-31T01:53:51.593Z,2.90
2023-03-31T01:56:22.226Z,3.15
2023-03-31T01:58:52.057Z,2.92
2023-03-31T02:01:22.121Z,3.13
2023-03-31T02:03:51.799Z,2.75
2023-03-31T02:06:24.476Z,3.15
2023-03-31T02:08:54.285Z,3.30
2023-03-31T02:11:23.752Z,2.70
2023-03-31T02:13:52.837Z,2.90
2023-03-31T02:16:24.417Z,2.92
2023-03-31T02:18:53.115Z,2.70
2023-03-31T02:21:22.709Z,2.63
2023-03-31T02:23:50.854Z,2.90
2023-03-31T02:26:20.414Z,2.95
2023-03-31T02:28:49.891Z,2.65
2023-03-31T02:31:24.829Z,2.78
2023-03-31T02:33:52.797Z,2.88
2023-03-31T02:36:21.442Z,2.83
2023-03-31T02:38:51.310Z,2.80
2023-03-31T02:41:19.188Z,2.47
2023-03-31T02:43:47.145Z,2.80
2023-03-31T02:46:16.482Z,2.83
2023-03-31T02:48:45.619Z,2.80
2023-03-31T02:51:54.282Z,2.72
2023-03-31T02:54:41.491Z,2.75
2023-03-31T02:57:38.074Z,2.63
2023-03-31T03:00:09.689Z,2.80
2023-03-31T03:02:52.665Z,2.95
2023-03-31T03:05:24.964Z,2.38
2023-03-31T03:08:21.795Z,2.70
2023-03-31T03:10:56.461Z,2.40
2023-03-31T03:13:25.723Z,2.30
2023-03-31T03:15:57.594Z,2.40
2023-03-31T03:18:26.899Z,2.53
2023-03-31T03:20:54.788Z,2.30
2023-03-31T03:23:22.773Z,2.60
2023-03-31T03:25:51.149Z,2.42
2023-03-31T03:28:19.090Z,2.50
2023-03-31T03:30:47.248Z,2.67
2023-03-31T03:33:17.224Z,2.42
2023-03-31T03:35:46.716Z,2.20
2023-03-31T03:38:14.647Z,2.50
2023-03-31T03:40:42.504Z,2.50
2023-03-31T03:43:10.688Z,2.33
2023-03-31T03:45:38.644Z,2.50
2023-03-31T03:48:07.158Z,2.38
2023-03-31T03:50:38.131Z,2.20
2023-03-31T03:53:07.368Z,2.33
2023-03-31T03:55:35.290Z,2.50
2023-03-31T03:58:03.196Z,2.10
2023-03-31T04:00:31.315Z,2.78
2023-03-31T04:02:59.242Z,2.40
2023-03-31T04:05:27.212Z,2.80
2023-03-31T04:07:55.282Z,2.30
2023-03-31T04:10:24.556Z,2.53
2023-03-31T04:12:52.426Z,2.22
2023-03-31T04:15:20.426Z,2.17
2023-03-31T04:17:54.790Z,2.30
2023-03-31T04:20:27.821Z,2.20
2023-03-31T04:22:55.875Z,2.30
2023-03-31T04:25:25.160Z,2.17
2023-03-31T04:27:55.611Z,2.28
2023-03-31T04:30:23.797Z,2.05
2023-03-31T04:32:53.321Z,2.10
2023-03-31T04:35:21.648Z,1.80
2023-03-31T04:37:49.570Z,2.00
2023-03-31T04:40:17.594Z,2.00
2023-03-31T04:42:46.930Z,2.33
2023-03-31T04:45:14.803Z,2.00
2023-03-31T04:47:43.465Z,1.90
2023-03-31T04:50:15.377Z,2.03
2023-03-31T04:52:44.758Z,2.20
2023-03-31T04:55:12.640Z,2.10
2023-03-31T04:57:40.557Z,2.10
2023-03-31T05:00:11.849Z,2.20
2023-03-31T05:02:39.798Z,2.28
2023-03-31T05:05:08.149Z,1.95
2023-03-31T05:07:36.016Z,2.15
2023-03-31T05:10:04.067Z,2.00
2023-03-31T05:12:34.829Z,1.85
2023-03-31T05:15:02.785Z,2.10
2023-03-31T05:17:34.252Z,2.00
2023-03-31T05:20:05.566Z,2.00
2023-03-31T05:22:36.021Z,1.90
2023-03-31T05:25:04.280Z,2.30
2023-03-31T05:27:32.221Z,6.63
2023-03-31T05:30:00.115Z,9.57
2023-03-31T05:32:28.363Z,11.52
2023-03-31T05:34:58.112Z,13.40
2023-03-31T05:37:26.103Z,12.40
2023-03-31T05:39:54.155Z,11.23
2023-03-31T05:42:22.186Z,11.48
2023-03-31T05:44:50.204Z,13.80
2023-03-31T05:47:18.268Z,12.52
2023-03-31T05:49:46.160Z,11.40
2023-03-31T05:52:15.455Z,11.77
2023-03-31T05:54:44.397Z,10.55
2023-03-31T05:57:12.796Z,11.27
2023-03-31T05:59:42.184Z,10.90
2023-03-31T06:02:12.592Z,11.32
2023-03-31T06:04:40.740Z,10.93
2023-03-31T06:07:10.103Z,10.93
2023-03-31T06:09:39.325Z,10.98
2023-03-31T06:12:08.436Z,10.70
2023-03-31T06:17:13.641Z,9.93
2023-03-31T06:19:41.540Z,10.40
2023-03-31T06:22:09.480Z,10.00
2023-03-31T06:24:37.441Z,9.23
2023-03-31T06:27:05.330Z,9.52
2023-03-31T06:29:33.219Z,9.63
2023-03-31T06:32:02.211Z,9.50
2023-03-31T06:34:31.846Z,8.60
2023-03-31T06:36:59.880Z,8.85
2023-03-31T06:39:28.619Z,9.02
2023-03-31T06:41:56.699Z,8.73
2023-03-31T06:44:28.799Z,7.88
2023-03-31T06:46:56.715Z,8.32
2023-03-31T06:49:24.747Z,8.18
2023-03-31T06:51:54.044Z,8.32
2023-03-31T06:54:21.934Z,7.97
2023-03-31T06:56:49.868Z,7.82
2023-03-31T06:59:18.332Z,7.57
2023-03-31T07:01:48.807Z,7.75
2023-03-31T07:04:16.923Z,7.10
2023-03-31T07:06:45.013Z,7.72
2023-03-31T07:09:14.250Z,7.22
2023-03-31T07:11:42.163Z,6.70
2023-03-31T07:14:10.089Z,7.35
2023-03-31T07:16:38.134Z,7.82
2023-03-31T07:19:06.126Z,7.63
2023-03-31T07:21:34.012Z,7.18
2023-03-31T07:24:01.937Z,7.25
2023-03-31T07:26:31.160Z,7.57
2023-03-31T07:28:59.257Z,7.47
2023-03-31T07:31:27.386Z,7.95
2023-03-31T07:33:55.352Z,7.63
2023-03-31T07:36:23.407Z,8.23
2023-03-31T07:38:51.493Z,7.47
2023-03-31T07:41:20.181Z,7.10
2023-03-31T07:43:49.510Z,7.45
2023-03-31T07:46:18.728Z,7.22
2023-03-31T07:48:47.622Z,6.90
2023-03-31T07:51:16.103Z,7.70
2023-03-31T07:53:44.020Z,9.68
2023-03-31T07:56:11.977Z,14.63
2023-03-31T07:58:39.902Z,9.85
2023-03-31T08:01:09.388Z,9.77
2023-03-31T08:03:37.419Z,11.18
2023-03-31T08:06:05.797Z,10.40
2023-03-31T08:08:34.021Z,11.23
2023-03-31T08:11:01.912Z,11.82
2023-03-31T08:13:29.789Z,13.45
2023-03-31T08:15:57.794Z,13.98
2023-03-31T08:18:27.090Z,14.93
2023-03-31T08:20:55.093Z,16.25
2023-03-31T08:23:23.005Z,16.10
2023-03-31T08:25:50.898Z,14.70
2023-03-31T08:28:18.926Z,14.40
2023-03-31T08:30:47.155Z,13.52
2023-03-31T08:33:15.082Z,14.43
2023-03-31T08:35:44.395Z,13.93
2023-03-31T08:38:12.431Z,13.85
2023-03-31T08:40:40.372Z,12.98
2023-03-31T08:43:11.956Z,12.88
2023-03-31T08:45:40.979Z,11.88
2023-03-31T08:48:12.160Z,12.48
2023-03-31T08:50:44.498Z,10.93
2023-03-31T08:53:19.662Z,11.00
2023-03-31T08:55:49.751Z,10.38
2023-03-31T08:58:25.116Z,10.73
2023-03-31T09:00:55.548Z,10.63
2023-03-31T09:03:26.191Z,11.75
2023-03-31T09:06:01.017Z,9.80
2023-03-31T09:08:42.112Z,10.52
2023-03-31T09:11:15.736Z,10.18
2023-03-31T09:14:07.145Z,9.77
2023-03-31T09:16:36.913Z,8.95
2023-03-31T09:19:04.878Z,9.18
2023-03-31T09:21:34.834Z,9.63
2023-03-31T09:24:06.169Z,8.77
2023-03-31T09:26:37.326Z,8.18
2023-03-31T09:29:08.774Z,9.10
2023-03-31T09:31:36.826Z,8.10
2023-03-31T09:34:12.257Z,8.80
2023-03-31T09:36:42.099Z,8.13
2023-03-31T09:39:13.303Z,8.18
2023-03-31T09:41:41.961Z,7.97
2023-03-31T09:44:20.445Z,8.55
2023-03-31T09:46:48.401Z,8.30
2023-03-31T09:49:17.404Z,8.02
2023-03-31T09:51:48.980Z,7.93
2023-03-31T09:54:20.792Z,8.15
2023-03-31T09:56:50.534Z,7.82
2023-03-31T09:59:19.320Z,8.40
2023-03-31T10:01:47.474Z,7.22
2023-03-31T10:04:23.942Z,7.85
2023-03-31T10:06:53.778Z,7.50
2023-03-31T10:09:23.113Z,7.97
2023-03-31T10:11:55.952Z,6.95
2023-03-31T10:14:27.234Z,7.60
2023-03-31T10:16:55.710Z,7.18
2023-03-31T10:19:24.447Z,7.45
2023-03-31T10:21:58.994Z,6.95
2023-03-31T10:24:27.750Z,6.45
2023-03-31T10:26:56.438Z,7.32
2023-03-31T10:29:28.799Z,7.28
2023-03-31T10:31:56.827Z,6.97
2023-03-31T10:34:24.788Z,7.15
2023-03-31T10:36:52.798Z,6.80
2023-03-31T10:39:22.058Z,6.78
2023-03-31T10:41:53.096Z,6.75
2023-03-31T10:44:34.984Z,6.32
2023-03-31T10:47:07.593Z,6.97
2023-03-31T10:49:39.561Z,6.90
2023-03-31T10:52:19.726Z,6.55
2023-03-31T10:54:50.040Z,6.38
2023-03-31T10:57:18.851Z,6.30
2023-03-31T10:59:58.742Z,6.35
2023-03-31T11:02:46.674Z,6.45
2023-03-31T11:05:16.377Z,6.43
2023-03-31T11:07:51.339Z,6.05
2023-03-31T11:10:38.977Z,6.13
2023-03-31T11:13:08.344Z,6.35
2023-03-31T11:15:38.046Z,5.80
2023-03-31T11:18:14.471Z,5.97
2023-03-31T11:20:47.492Z,6.70
2023-03-31T11:23:18.468Z,5.47
2023-03-31T11:25:50.954Z,5.72
2023-03-31T11:28:28.331Z,5.75
2023-03-31T11:30:59.572Z,5.45
2023-03-31T11:33:49.865Z,5.75
2023-03-31T11:36:29.703Z,5.95
2023-03-31T11:39:04.841Z,5.82
2023-03-31T11:41:36.052Z,5.38
2023-03-31T11:44:04.568Z,5.20
2023-03-31T11:46:36.425Z,5.50
2023-03-31T11:49:05.345Z,5.05
2023-03-31T11:51:36.159Z,5.45
2023-03-31T11:54:06.425Z,5.43
2023-03-31T11:56:37.635Z,5.07
2023-03-31T11:59:05.537Z,5.25
2023-03-31T12:01:37.800Z,5.30
2023-03-31T12:04:07.748Z,4.68
2023-03-31T12:06:40.033Z,5.15
2023-03-31T12:09:12.919Z,5.15
2023-03-31T12:11:44.325Z,4.70
2023-03-31T12:14:28.976Z,5.10
2023-03-31T12:16:59.400Z,4.75
2023-03-31T12:19:28.905Z,4.93
2023-03-31T12:21:57.822Z,5.18
2023-03-31T12:24:25.722Z,5.15
2023-03-31T12:27:00.376Z,4.47
2023-03-31T12:29:30.600Z,5.00
2023-03-31T12:31:59.576Z,4.72
2023-03-31T12:34:27.861Z,5.10
2023-03-31T12:37:34.719Z,5.00
2023-03-31T12:40:08.028Z,4.50
2023-03-31T12:42:54.067Z,4.45
2023-03-31T12:45:26.953Z,4.78
2023-03-31T12:48:05.675Z,4.40
2023-03-31T12:50:42.148Z,4.60
2023-03-31T12:53:15.736Z,4.38
2023-03-31T12:55:44.044Z,4.50
2023-03-31T12:58:45.342Z,4.65
2023-03-31T13:01:17.882Z,5.10
2023-03-31T13:03:53.924Z,4.53
2023-03-31T13:06:53.769Z,4.32
2023-03-31T13:09:42.846Z,4.72
2023-03-31T13:12:14.459Z,4.22
2023-03-31T13:14:44.685Z,4.28
2023-03-31T13:17:14.289Z,4.50
2023-03-31T13:19:42.653Z,4.00
2023-03-31T13:22:32.229Z,4.15
2023-03-31T13:25:37.125Z,4.25
2023-03-31T13:28:13.822Z,4.47
2023-03-31T13:30:51.626Z,4.25
2023-03-31T13:33:25.340Z,3.80
2023-03-31T13:35:55.267Z,3.88
2023-03-31T13:38:32.253Z,3.83
2023-03-31T13:41:09.806Z,3.83
2023-03-31T13:44:17.371Z,3.65
2023-03-31T13:47:08.156Z,4.10
2023-03-31T13:50:20.406Z,4.00
2023-03-31T13:52:51.798Z,4.20
2023-03-31T13:55:44.333Z,3.80
2023-03-31T13:58:35.240Z,3.58
2023-03-31T14:01:23.809Z,3.80
2023-03-31T14:03:59.816Z,4.22
2023-03-31T14:06:29.312Z,4.03
2023-03-31T14:08:58.492Z,4.00
2023-03-31T14:11:26.972Z,4.13
2023-03-31T14:14:06.203Z,3.78
2023-03-31T14:16:36.921Z,3.80
2023-03-31T14:19:14.715Z,4.07
2023-03-31T14:21:43.909Z,3.90
2023-03-31T14:24:15.010Z,3.55
2023-03-31T14:26:52.504Z,3.90
2023-03-31T14:29:21.306Z,4.00
2023-03-31T14:31:51.786Z,3.70
2023-03-31T14:34:42.890Z,3.63
2023-03-31T14:37:11.468Z,3.40
2023-03-31T14:39:42.345Z,3.70
2023-03-31T14:42:12.643Z,3.58
2023-03-31T14:44:41.066Z,3.60
2023-03-31T14:47:14.427Z,3.67
2023-03-31T14:49:43.730Z,3.60
2023-03-31T14:52:17.034Z,3.65
2023-03-31T14:54:47.392Z,3.38
2023-03-31T14:57:17.784Z,3.38
2023-03-31T14:59:45.912Z,3.47
2023-03-31T15:02:16.217Z,3.40
2023-03-31T15:04:48.227Z,3.28
2023-03-31T15:07:16.359Z,3.28
2023-03-31T15:09:46.208Z,3.53
2023-03-31T15:12:14.884Z,3.10
2023-03-31T15:14:45.911Z,3.13
2023-03-31T15:17:21.741Z,3.40
2023-03-31T15:19:56.040Z,3.50
2023-03-31T15:22:25.869Z,3.30
2023-03-31T15:24:54.054Z,3.25
2023-03-31T15:27:35.728Z,3.13
2023-03-31T15:30:05.623Z,3.20
2023-03-31T15:32:37.342Z,3.30
2023-03-31T15:35:20.957Z,3.40
2023-03-31T15:37:51.000Z,3.17
2023-03-31T15:40:20.554Z,3.08
2023-03-31T15:43:01.615Z,2.70
2023-03-31T15:45:54.211Z,3.40
2023-03-31T15:48:23.842Z,3.05
2023-03-31T15:50:53.292Z,3.03
2023-03-31T15:53:28.490Z,2.83
2023-03-31T15:55:57.007Z,3.20
2023-03-31T15:58:26.994Z,3.00
2023-03-31T16:00:54.842Z,2.90
2023-03-31T16:03:26.704Z,3.10
2023-03-31T16:05:56.849Z,2.97
2023-03-31T16:08:27.685Z,2.70
2023-03-31T16:11:00.590Z,3.00
2023-03-31T16:13:28.484Z,3.00
2023-03-31T16:15:56.431Z,2.92
2023-03-31T16:18:27.029Z,2.75
2023-03-31T16:20:57.998Z,3.03
2023-03-31T16:23:27.081Z,2.90
2023-03-31T16:25:54.984Z,2.97
2023-03-31T16:28:23.779Z,2.65
2023-03-31T16:30:51.708Z,3.03
2023-03-31T16:33:20.078Z,2.92
2023-03-31T16:35:51.004Z,2.60
2023-03-31T16:38:20.907Z,2.83
2023-03-31T16:40:49.324Z,2.75
2023-03-31T16:43:17.924Z,3.00
2023-03-31T16:45:47.000Z,2.55
2023-03-31T16:48:16.763Z,3.28
2023-03-31T16:50:46.036Z,2.92
2023-03-31T16:53:14.112Z,2.80
2023-03-31T16:55:43.405Z,2.88
2023-03-31T16:58:11.325Z,3.00
2023-03-31T17:00:40.203Z,2.65
2023-03-31T17:03:08.374Z,2.60
2023-03-31T17:05:39.109Z,2.75
2023-03-31T17:08:08.515Z,2.65
2023-03-31T17:10:36.421Z,2.63
2023-03-31T17:13:06.011Z,2.80
2023-03-31T17:18:24.053Z,2.65
2023-03-31T17:20:53.732Z,2.58
2023-03-31T17:23:22.052Z,2.50
2023-03-31T17:25:50.291Z,2.60
2023-03-31T17:28:19.691Z,2.80
2023-03-31T17:30:47.910Z,2.70
2023-03-31T17:33:16.384Z,2.40
2023-03-31T17:35:44.468Z,2.45
2023-03-31T17:38:14.257Z,2.53
2023-03-31T17:40:43.189Z,2.60
2023-03-31T17:43:11.152Z,2.38
2023-03-31T17:45:41.178Z,2.22
2023-03-31T17:48:09.987Z,2.33
2023-03-31T17:50:38.328Z,2.45
2023-03-31T17:53:09.125Z,2.10
2023-03-31T17:55:38.251Z,2.28
2023-03-31T17:58:08.520Z,2.15
2023-03-31T18:00:36.763Z,2.20
2023-03-31T18:03:06.405Z,2.35
2023-03-31T18:05:37.103Z,2.05
2023-03-31T18:08:05.678Z,2.40
2023-03-31T18:10:34.130Z,2.58
2023-03-31T18:13:02.536Z,2.22
2023-03-31T18:15:30.392Z,2.47
2023-03-31T18:17:58.379Z,2.08
2023-03-31T18:20:27.945Z,2.38
2023-03-31T18:22:55.840Z,2.30
2023-03-31T18:25:23.854Z,2.10
2023-03-31T18:27:52.252Z,2.20
2023-03-31T18:30:20.341Z,2.20
2023-03-31T18:32:48.312Z,2.05
2023-03-31T18:35:16.880Z,2.40
2023-03-31T18:37:46.313Z,2.20
2023-03-31T18:40:14.900Z,1.98
2023-03-31T18:42:42.914Z,2.05
2023-03-31T18:45:11.225Z,2.08
2023-03-31T18:47:39.271Z,1.90
2023-03-31T18:50:09.313Z,1.90
2023-03-31T18:52:37.397Z,2.28
2023-03-31T18:55:07.590Z,2.00
2023-03-31T18:57:35.498Z,2.28
2023-03-31T19:00:03.712Z,1.92
2023-03-31T19:02:31.935Z,2.22
2023-03-31T19:05:00.313Z,2.10
2023-03-31T19:07:28.216Z,2.38
2023-03-31T19:09:56.139Z,2.08
2023-03-31T19:12:25.697Z,2.10
2023-03-31T19:14:53.623Z,2.50
2023-03-31T19:17:21.582Z,1.90
2023-03-31T19:19:50.180Z,2.10
2023-03-31T19:22:18.226Z,2.17
2023-03-31T19:24:46.118Z,2.15
2023-03-31T19:27:14.111Z,2.22
2023-03-31T19:29:43.333Z,2.40
2023-03-31T19:32:11.541Z,2.20
2023-03-31T19:34:39.689Z,2.70
2023-03-31T19:37:07.623Z,2.13
2023-03-31T19:39:35.725Z,2.10
2023-03-31T19:42:03.706Z,2.22
2023-03-31T19:44:31.732Z,2.83
2023-03-31T19:47:00.981Z,2.22
2023-03-31T19:49:29.017Z,2.03
2023-03-31T19:51:56.925Z,2.00
2023-03-31T19:54:24.808Z,2.10
2023-03-31T19:56:52.811Z,2.20
2023-03-31T19:59:20.792Z,2.13
2023-03-31T20:01:48.814Z,2.10
2023-03-31T20:04:18.470Z,2.00
2023-03-31T20:06:48.289Z,1.95
2023-03-31T20:09:17.282Z,2.50
2023-03-31T20:11:45.403Z,2.53
2023-03-31T20:14:15.232Z,2.30
2023-03-31T20:16:44.541Z,2.25
2023-03-31T20:19:12.838Z,2.10
2023-03-31T20:21:42.766Z,2.38
2023-03-31T20:24:12.020Z,2.30
2023-03-31T20:26:39.882Z,2.38
2023-03-31T20:29:08.218Z,2.30
2023-03-31T20:31:37.399Z,2.00
2023-03-31T20:34:05.814Z,2.35
2023-03-31T20:36:33.799Z,2.20
2023-03-31T20:39:05.586Z,2.63
2023-03-31T20:41:33.736Z,2.60
2023-03-31T20:44:01.897Z,2.38
2023-03-31T20:46:30.090Z,2.30
2023-03-31T20:48:58.533Z,2.20
2023-03-31T20:51:27.604Z,2.28
2023-03-31T20:53:56.324Z,2.30
2023-03-31T20:56:26.583Z,2.42
2023-03-31T20:58:55.009Z,2.10
2023-03-31T21:01:23.596Z,2.10
2023-03-31T21:03:51.704Z,2.50
2023-03-31T21:06:20.007Z,2.30
2023-03-31T21:08:51.712Z,2.50
2023-03-31T21:11:19.635Z,2.20
2023-03-31T21:13:48.915Z,2.47
2023-03-31T21:16:16.995Z,2.35
2023-03-31T21:18:44.955Z,2.70
2023-03-31T21:21:13.520Z,2.50
2023-03-31T21:23:41.579Z,2.40
2023-03-31T21:26:10.072Z,2.50
2023-03-31T21:28:38.906Z,2.25
2023-03-31T21:31:09.870Z,2.55
2023-03-31T21:33:39.078Z,2.50
2023-03-31T21:36:07.801Z,2.28
2023-03-31T21:38:36.243Z,2.22
2023-03-31T21:41:06.863Z,2.40
2023-03-31T21:43:34.989Z,2.55
2023-03-31T21:46:02.980Z,2.42
2023-03-31T21:48:32.237Z,2.28
2023-03-31T21:51:01.539Z,2.50
2023-03-31T21:53:30.158Z,2.20
2023-03-31T21:55:58.341Z,2.58
2023-03-31T21:58:28.392Z,2.20
2023-03-31T22:00:56.453Z,2.20
2023-03-31T22:03:27.434Z,2.25
2023-03-31T22:05:57.515Z,2.40
2023-03-31T22:08:26.886Z,2.35
2023-03-31T22:10:55.009Z,2.40
2023-03-31T22:13:23.141Z,2.35
2023-03-31T22:15:51.205Z,2.50
2023-03-31T22:18:19.212Z,2.42
2023-03-31T22:20:47.205Z,2.50
2023-03-31T22:23:16.679Z,2.40
2023-03-31T22:25:44.632Z,2.15
2023-03-31T22:28:12.611Z,2.35
2023-03-31T22:30:40.484Z,2.10
2023-03-31T22:33:08.455Z,2.42
2023-03-31T22:35:36.519Z,2.42
2023-03-31T22:38:06.173Z,2.17
2023-03-31T22:40:36.714Z,2.58
2023-03-31T22:43:04.704Z,2.25
2023-03-31T22:45:32.778Z,2.50
2023-03-31T22:48:00.938Z,2.63
2023-03-31T22:50:29.013Z,2.60
2023-03-31T22:52:56.879Z,2.22
2023-03-31T22:55:24.765Z,2.60
2023-03-31T22:57:54.052Z,2.40
2023-03-31T23:00:22.505Z,2.50
2023-03-31T23:02:50.745Z,2.38
2023-03-31T23:05:18.890Z,2.35
2023-03-31T23:07:46.770Z,2.28
2023-03-31T23:10:14.630Z,2.30
2023-03-31T23:12:42.507Z,2.42
2023-03-31T23:15:11.782Z,2.65
2023-03-31T23:17:39.799Z,2.72
2023-03-31T23:20:08.607Z,2.25
2023-03-31T23:22:36.698Z,2.50
2023-03-31T23:25:05.006Z,2.65
2023-03-31T23:27:33.149Z,2.45
2023-03-31T23:30:01.371Z,2.40
2023-03-31T23:32:30.624Z,2.55
2023-03-31T23:34:58.559Z,2.75
2023-03-31T23:37:27.449Z,2.70
2023-03-31T23:39:55.341Z,2.53
2023-03-31T23:42:23.223Z,2.33
2023-03-31T23:44:51.154Z,2.63
2023-03-31T23:47:19.260Z,2.38
2023-03-31T23:49:48.548Z,2.38
2023-03-31T23:52:16.769Z,2.70
2023-03-31T23:54:44.880Z,2.63
2023-03-31T23:57:13.003Z,2.75
2023-03-31T23:59:41.114Z,2.60
